Portada
METAR-TAF:

METAR-TAF

Aeropuertos :

Damasco, Siria

Aeropuerto Internacional de Damasco

latitud: 33-25N, longitud: 036-31E, altitud: 608 m

Observación

El informe se hizo hace 18 minutos, a las 23:00 UTC
Viento 7 kt del sur
Temperatura 12°C
Humedad 71%
Presión 1007 hPa
Visibilidad 10 km o más
sin nubes por debajo de 1500 m y sin presencia de cumulonimbus.

METAR: OSDI 212300Z 18007KT CAVOK 12/07 Q1007

Hora: 02:18 (23:18 UTC)

Pronóstico

Pronóstico válido del 21 a las 18 UTC al 22 a las 24 UTC
Viento 10 kt del suroeste con ráfagas de 20 kt
Visibilidad 10 km o más
Escasas nubes a una altura de 3000 ft
Temporalmente
del 22 a las 12 UTC al 22 a las 18 UTC
Viento 15 kt del oeste-suroeste con ráfagas de 25 kt

TAF: OSDI 2118/2224 22010G20KT 9999 FEW030 TEMPO 2212/2218 24015G25KT

Observaciones y pronósticos meteorológicos de más de 4000 aeropuertos (mensajes METAR y TAF).

Los puntos amarillos y rojos representan las estaciones disponibles.

Ponga el ratón en el punto deseado para ver el nombre de la estación.

Haga clic para ver las observaciones y los pronósticos meteorológicos.

Para cambiar el mapa : haga clic en los botones verdes con una cruz de color negro para hacer un zoom, en el botón verde con un guión para alejar o en las flechas verdes para mapas adyacentes.


METAR-TAF: